Terminal Aerodrome Forecast
Issued by NWS Lake Charles, LA

Home | Current Version | Previous Version | Text Only | Print | Product List | Glossary On
Versions: 1 2 3 4 5 6 7 8 9 10 11 12 13 14 15
000
FTUS44 KLCH 191700
TAFLCH
TAF
KLCH 191730Z 1918/2018 04010KT P6SM VCSH OVC005
      TEMPO 1918/1921 4SM RA BR
     FM192100 04009KT 6SM -RA OVC005
     FM200000 03010KT 4SM -RA BR OVC005
     FM200300 03009KT 4SM BR OVC004=

USA.gov is the U.S. government's official web portal to all federal, state and local government web resources and services.